Soledad, CA (93960)

6:31 AM PDT on July 01, 2015 (GMT -0700)
Manzoni Vineyards River Rd, West of Gonzales | | Change Station
CLOSE
Current Station
Personal Weather Station
Location: Soledad, CA
Elevation: 131 ft
Nearby Weather Stations

Elev 131 ft 36.47 °N, 121.47 °W | Updated 15 seconds ago

Mostly Cloudy
Mostly Cloudy
56.5 °F
Feels Like 56.5 °F
N
0.0
Wind Variable Wind from East
Gusts 0.0 mph

Today
High -- | Low -- °F
--% Chance of Precip.
Yesterday
High -- | Low -- °F
Precip. -- in
5:50 AM 8:27 PM
Full, 100% visible
Pressure 29.86 in
Visibility 0.2 miles
Clouds Overcast 300 ft
Dew Point 56 °F
Humidity 97%
Rainfall 0.00 in
Snow Depth Not available.
UV 0.0 out of 12
Pollen 5.20 out of 12
Air Quality Not available.
Flu Activity Not available.
SPECI KSNS 011301Z 00000KT 1/4SM FG OVC003 12/12 A2986 RMK AO2 RVRNO

More Conditions Fewer Conditions

Pressure 29.86 in
Visibility 0.2 miles
Clouds Overcast 300 ft
Dew Point 56 °F
Humidity 97%
Rainfall 0.00 in
Snow Depth Not available.
UV 0.0 out of 12
Pollen 5.20 out of 12
Air Quality Not available.
Flu Activity Not available.
SPECI KSNS 011301Z 00000KT 1/4SM FG OVC003 12/12 A2986 RMK AO2 RVRNO

More Conditions Fewer Conditions

10-Day Weather Forecast

×

Almanac

Astronomy

Jul. 01, 2015 Rise Set
Actual Time
Civil Twilight
Nautical Twilight
Astronomical Twilight
Moon
Length of Visible Light
Length of Day
Tomorrow will be .
, % of the Moon is Illuminated

Today's Extremes

State Highs State Lows

Community

WunderPhotos

Upload Photos

1,834,196 photos uploaded!

WunderBlogs® & News

Nearby

Air Quality

  Air Quality AQ Index Pollutant
Not available.

Snow Depth

Station Depth Elevation

Earthquake Activity

City Distance Mag. Time & Date
Minimum magnitude displayed is 2.5.

Coastal Water Temperatures

Place Temperature

Stations

Nearby Weather Stations

Station Location Temp. Windchill Dew Point Humidity Wind Precip. Elev Updated Type